sensor_id;sensor_type;location;lat;lon;timestamp;P1;durP1;ratioP1;P2;durP2;ratioP2
43297;SDS011;28892;55.640;37.532;2023-04-06T00:02:11;5.85;;;4.40;;
43297;SDS011;28892;55.640;37.532;2023-04-06T00:04:37;4.72;;;4.13;;
43297;SDS011;28892;55.640;37.532;2023-04-06T00:07:03;7.05;;;4.50;;
43297;SDS011;28892;55.640;37.532;2023-04-06T00:09:29;3.33;;;2.92;;
43297;SDS011;28892;55.640;37.532;2023-04-06T00:11:54;5.00;;;4.10;;
43297;SDS011;28892;55.640;37.532;2023-04-06T00:14:20;5.15;;;4.15;;
43297;SDS011;28892;55.640;37.532;2023-04-06T00:16:46;4.90;;;4.20;;
43297;SDS011;28892;55.640;37.532;2023-04-06T00:19:11;8.18;;;4.00;;
43297;SDS011;28892;55.640;37.532;2023-04-06T00:21:37;5.68;;;3.85;;
43297;SDS011;28892;55.640;37.532;2023-04-06T00:24:03;8.27;;;4.47;;
43297;SDS011;28892;55.640;37.532;2023-04-06T00:26:29;6.38;;;4.57;;
43297;SDS011;28892;55.640;37.532;2023-04-06T00:28:56;6.13;;;4.05;;
43297;SDS011;28892;55.640;37.532;2023-04-06T00:31:24;6.68;;;4.43;;
43297;SDS011;28892;55.640;37.532;2023-04-06T00:33:49;6.47;;;4.22;;
43297;SDS011;28892;55.640;37.532;2023-04-06T00:36:15;8.25;;;4.45;;
43297;SDS011;28892;55.640;37.532;2023-04-06T00:38:41;6.13;;;4.57;;
43297;SDS011;28892;55.640;37.532;2023-04-06T00:41:07;5.38;;;4.05;;
43297;SDS011;28892;55.640;37.532;2023-04-06T00:43:32;9.13;;;4.30;;
43297;SDS011;28892;55.640;37.532;2023-04-06T00:45:58;6.72;;;4.20;;
43297;SDS011;28892;55.640;37.532;2023-04-06T00:48:24;5.32;;;4.00;;
43297;SDS011;28892;55.640;37.532;2023-04-06T00:50:50;5.07;;;4.45;;
43297;SDS011;28892;55.640;37.532;2023-04-06T00:53:16;4.95;;;4.30;;
43297;SDS011;28892;55.640;37.532;2023-04-06T00:55:43;4.72;;;4.20;;
43297;SDS011;28892;55.640;37.532;2023-04-06T00:58:09;9.27;;;4.35;;
43297;SDS011;28892;55.640;37.532;2023-04-06T01:00:45;5.50;;;4.28;;
43297;SDS011;28892;55.640;37.532;2023-04-06T01:03:15;5.30;;;3.60;;
43297;SDS011;28892;55.640;37.532;2023-04-06T01:05:42;6.20;;;4.50;;
43297;SDS011;28892;55.640;37.532;2023-04-06T01:08:19;5.72;;;4.63;;
43297;SDS011;28892;55.640;37.532;2023-04-06T01:10:45;7.10;;;4.80;;
43297;SDS011;28892;55.640;37.532;2023-04-06T01:13:23;6.95;;;4.18;;
43297;SDS011;28892;55.640;37.532;2023-04-06T01:15:53;5.82;;;4.40;;
43297;SDS011;28892;55.640;37.532;2023-04-06T01:18:37;7.93;;;5.25;;
43297;SDS011;28892;55.640;37.532;2023-04-06T01:21:12;6.15;;;4.78;;
43297;SDS011;28892;55.640;37.532;2023-04-06T01:23:50;6.78;;;4.88;;
43297;SDS011;28892;55.640;37.532;2023-04-06T01:26:23;5.65;;;4.70;;
43297;SDS011;28892;55.640;37.532;2023-04-06T01:28:50;5.57;;;4.20;;
43297;SDS011;28892;55.640;37.532;2023-04-06T01:31:24;8.32;;;4.88;;
43297;SDS011;28892;55.640;37.532;2023-04-06T01:33:52;6.57;;;4.40;;
43297;SDS011;28892;55.640;37.532;2023-04-06T01:36:20;6.38;;;4.57;;
43297;SDS011;28892;55.640;37.532;2023-04-06T01:38:54;8.05;;;4.82;;
43297;SDS011;28892;55.640;37.532;2023-04-06T01:41:28;5.68;;;4.88;;
43297;SDS011;28892;55.640;37.532;2023-04-06T01:43:54;6.72;;;4.88;;
43297;SDS011;28892;55.640;37.532;2023-04-06T01:46:23;7.35;;;4.93;;
43297;SDS011;28892;55.640;37.532;2023-04-06T01:48:50;5.82;;;4.57;;
43297;SDS011;28892;55.640;37.532;2023-04-06T01:51:34;5.45;;;4.60;;
43297;SDS011;28892;55.640;37.532;2023-04-06T01:54:02;5.88;;;4.15;;
43297;SDS011;28892;55.640;37.532;2023-04-06T01:56:48;6.70;;;5.00;;
43297;SDS011;28892;55.640;37.532;2023-04-06T01:59:28;5.22;;;4.72;;
43297;SDS011;28892;55.640;37.532;2023-04-06T02:01:55;6.97;;;4.93;;
43297;SDS011;28892;55.640;37.532;2023-04-06T02:04:23;6.38;;;5.03;;
43297;SDS011;28892;55.640;37.532;2023-04-06T02:06:55;6.75;;;5.15;;
43297;SDS011;28892;55.640;37.532;2023-04-06T02:09:23;5.55;;;4.88;;
43297;SDS011;28892;55.640;37.532;2023-04-06T02:11:49;10.43;;;5.00;;
43297;SDS011;28892;55.640;37.532;2023-04-06T02:14:15;6.60;;;5.22;;
43297;SDS011;28892;55.640;37.532;2023-04-06T02:16:47;5.63;;;4.82;;
43297;SDS011;28892;55.640;37.532;2023-04-06T02:19:13;6.13;;;5.07;;
43297;SDS011;28892;55.640;37.532;2023-04-06T02:21:39;8.07;;;5.05;;
43297;SDS011;28892;55.640;37.532;2023-04-06T02:24:05;7.20;;;5.15;;
43297;SDS011;28892;55.640;37.532;2023-04-06T02:26:31;7.07;;;5.22;;
43297;SDS011;28892;55.640;37.532;2023-04-06T02:28:57;7.53;;;5.72;;
43297;SDS011;28892;55.640;37.532;2023-04-06T02:31:23;6.60;;;5.30;;
43297;SDS011;28892;55.640;37.532;2023-04-06T02:33:50;5.97;;;4.72;;
43297;SDS011;28892;55.640;37.532;2023-04-06T02:36:16;7.55;;;5.20;;
43297;SDS011;28892;55.640;37.532;2023-04-06T02:38:42;9.98;;;5.53;;
43297;SDS011;28892;55.640;37.532;2023-04-06T02:41:08;7.03;;;5.43;;
43297;SDS011;28892;55.640;37.532;2023-04-06T02:43:34;9.27;;;5.45;;
43297;SDS011;28892;55.640;37.532;2023-04-06T02:46:14;10.77;;;5.55;;
43297;SDS011;28892;55.640;37.532;2023-04-06T02:48:40;5.78;;;5.00;;
43297;SDS011;28892;55.640;37.532;2023-04-06T02:51:06;7.68;;;5.68;;
43297;SDS011;28892;55.640;37.532;2023-04-06T02:53:32;10.35;;;5.10;;
43297;SDS011;28892;55.640;37.532;2023-04-06T02:55:58;6.57;;;5.13;;
43297;SDS011;28892;55.640;37.532;2023-04-06T02:58:31;5.82;;;4.82;;
43297;SDS011;28892;55.640;37.532;2023-04-06T03:00:57;6.85;;;5.25;;
43297;SDS011;28892;55.640;37.532;2023-04-06T03:03:23;8.23;;;5.15;;
43297;SDS011;28892;55.640;37.532;2023-04-06T03:05:49;6.85;;;4.60;;
43297;SDS011;28892;55.640;37.532;2023-04-06T03:08:22;5.65;;;4.13;;
43297;SDS011;28892;55.640;37.532;2023-04-06T03:10:49;7.38;;;5.10;;
43297;SDS011;28892;55.640;37.532;2023-04-06T03:13:16;5.75;;;3.72;;
43297;SDS011;28892;55.640;37.532;2023-04-06T03:15:55;6.93;;;4.47;;
43297;SDS011;28892;55.640;37.532;2023-04-06T03:18:22;8.90;;;4.53;;
43297;SDS011;28892;55.640;37.532;2023-04-06T03:20:58;5.68;;;4.43;;
43297;SDS011;28892;55.640;37.532;2023-04-06T03:23:33;4.97;;;4.13;;
43297;SDS011;28892;55.640;37.532;2023-04-06T03:26:01;7.00;;;5.05;;
43297;SDS011;28892;55.640;37.532;2023-04-06T03:28:28;7.38;;;5.00;;
43297;SDS011;28892;55.640;37.532;2023-04-06T03:31:01;6.60;;;5.15;;
43297;SDS011;28892;55.640;37.532;2023-04-06T03:33:40;7.07;;;5.20;;
43297;SDS011;28892;55.640;37.532;2023-04-06T03:36:15;9.85;;;5.47;;
43297;SDS011;28892;55.640;37.532;2023-04-06T03:38:42;6.70;;;4.70;;
43297;SDS011;28892;55.640;37.532;2023-04-06T03:41:13;6.10;;;4.90;;
43297;SDS011;28892;55.640;37.532;2023-04-06T03:43:42;8.02;;;5.20;;
43297;SDS011;28892;55.640;37.532;2023-04-06T03:46:08;11.50;;;4.95;;
43297;SDS011;28892;55.640;37.532;2023-04-06T03:48:34;4.97;;;4.03;;
43297;SDS011;28892;55.640;37.532;2023-04-06T03:51:03;8.13;;;4.40;;
43297;SDS011;28892;55.640;37.532;2023-04-06T03:53:29;9.18;;;4.97;;
43297;SDS011;28892;55.640;37.532;2023-04-06T03:55:55;6.95;;;5.40;;
43297;SDS011;28892;55.640;37.532;2023-04-06T03:58:21;5.55;;;4.15;;
43297;SDS011;28892;55.640;37.532;2023-04-06T04:00:47;5.65;;;4.90;;
43297;SDS011;28892;55.640;37.532;2023-04-06T04:03:12;4.60;;;3.95;;
43297;SDS011;28892;55.640;37.532;2023-04-06T04:05:38;7.97;;;4.53;;
43297;SDS011;28892;55.640;37.532;2023-04-06T04:08:04;9.85;;;5.10;;
43297;SDS011;28892;55.640;37.532;2023-04-06T04:10:30;7.65;;;4.50;;
43297;SDS011;28892;55.640;37.532;2023-04-06T04:12:56;7.93;;;4.60;;
43297;SDS011;28892;55.640;37.532;2023-04-06T04:15:22;7.50;;;3.58;;
43297;SDS011;28892;55.640;37.532;2023-04-06T04:17:48;7.70;;;5.05;;
43297;SDS011;28892;55.640;37.532;2023-04-06T04:20:15;9.25;;;5.20;;
43297;SDS011;28892;55.640;37.532;2023-04-06T04:22:46;4.55;;;2.95;;
43297;SDS011;28892;55.640;37.532;2023-04-06T04:25:12;6.95;;;4.30;;
43297;SDS011;28892;55.640;37.532;2023-04-06T04:27:43;6.45;;;4.53;;
43297;SDS011;28892;55.640;37.532;2023-04-06T04:30:10;7.40;;;5.03;;
43297;SDS011;28892;55.640;37.532;2023-04-06T04:32:36;6.70;;;4.57;;
43297;SDS011;28892;55.640;37.532;2023-04-06T04:35:04;7.57;;;4.75;;
43297;SDS011;28892;55.640;37.532;2023-04-06T04:37:35;6.07;;;4.70;;
43297;SDS011;28892;55.640;37.532;2023-04-06T04:40:02;4.72;;;3.55;;
43297;SDS011;28892;55.640;37.532;2023-04-06T04:42:32;10.63;;;4.30;;
43297;SDS011;28892;55.640;37.532;2023-04-06T04:44:59;5.55;;;4.03;;
43297;SDS011;28892;55.640;37.532;2023-04-06T04:47:40;8.45;;;4.75;;
43297;SDS011;28892;55.640;37.532;2023-04-06T04:50:09;12.77;;;4.90;;
43297;SDS011;28892;55.640;37.532;2023-04-06T04:52:39;9.73;;;4.60;;
43297;SDS011;28892;55.640;37.532;2023-04-06T04:55:18;5.80;;;4.00;;
43297;SDS011;28892;55.640;37.532;2023-04-06T04:57:51;12.35;;;5.00;;
43297;SDS011;28892;55.640;37.532;2023-04-06T05:00:21;6.93;;;4.50;;
43297;SDS011;28892;55.640;37.532;2023-04-06T05:02:48;5.85;;;4.55;;
43297;SDS011;28892;55.640;37.532;2023-04-06T05:05:19;5.90;;;4.18;;
43297;SDS011;28892;55.640;37.532;2023-04-06T05:07:48;7.18;;;5.00;;
43297;SDS011;28892;55.640;37.532;2023-04-06T05:10:24;4.35;;;3.95;;
43297;SDS011;28892;55.640;37.532;2023-04-06T05:12:54;5.32;;;4.22;;
43297;SDS011;28892;55.640;37.532;2023-04-06T05:15:20;7.63;;;4.55;;
43297;SDS011;28892;55.640;37.532;2023-04-06T05:17:49;8.82;;;4.80;;
43297;SDS011;28892;55.640;37.532;2023-04-06T05:20:21;6.03;;;4.05;;
43297;SDS011;28892;55.640;37.532;2023-04-06T05:22:52;6.97;;;4.47;;
43297;SDS011;28892;55.640;37.532;2023-04-06T05:25:20;6.95;;;5.38;;
43297;SDS011;28892;55.640;37.532;2023-04-06T05:27:56;5.30;;;4.38;;
43297;SDS011;28892;55.640;37.532;2023-04-06T05:30:29;4.57;;;3.78;;
43297;SDS011;28892;55.640;37.532;2023-04-06T05:32:56;7.22;;;4.35;;
43297;SDS011;28892;55.640;37.532;2023-04-06T05:35:25;9.95;;;4.68;;
43297;SDS011;28892;55.640;37.532;2023-04-06T05:37:55;5.43;;;3.50;;
43297;SDS011;28892;55.640;37.532;2023-04-06T05:40:23;6.80;;;4.60;;
43297;SDS011;28892;55.640;37.532;2023-04-06T05:42:49;9.00;;;5.03;;
43297;SDS011;28892;55.640;37.532;2023-04-06T05:45:16;10.10;;;4.20;;
43297;SDS011;28892;55.640;37.532;2023-04-06T05:47:49;6.53;;;4.95;;
43297;SDS011;28892;55.640;37.532;2023-04-06T05:50:28;9.32;;;4.50;;
43297;SDS011;28892;55.640;37.532;2023-04-06T05:52:54;17.45;;;5.05;;
43297;SDS011;28892;55.640;37.532;2023-04-06T05:55:27;10.57;;;4.07;;
43297;SDS011;28892;55.640;37.532;2023-04-06T05:58:06;5.25;;;3.63;;
43297;SDS011;28892;55.640;37.532;2023-04-06T06:00:31;6.38;;;3.88;;
43297;SDS011;28892;55.640;37.532;2023-04-06T06:03:03;8.27;;;5.40;;
43297;SDS011;28892;55.640;37.532;2023-04-06T06:05:31;9.30;;;4.35;;
43297;SDS011;28892;55.640;37.532;2023-04-06T06:08:06;17.75;;;5.28;;
43297;SDS011;28892;55.640;37.532;2023-04-06T06:10:39;11.70;;;4.50;;
43297;SDS011;28892;55.640;37.532;2023-04-06T06:13:07;7.00;;;5.10;;
43297;SDS011;28892;55.640;37.532;2023-04-06T06:15:33;8.52;;;4.55;;
43297;SDS011;28892;55.640;37.532;2023-04-06T06:18:02;9.13;;;6.00;;
43297;SDS011;28892;55.640;37.532;2023-04-06T06:20:31;19.33;;;5.30;;
43297;SDS011;28892;55.640;37.532;2023-04-06T06:23:04;10.95;;;4.93;;
43297;SDS011;28892;55.640;37.532;2023-04-06T06:25:31;7.68;;;4.93;;
43297;SDS011;28892;55.640;37.532;2023-04-06T06:28:00;8.10;;;4.10;;
43297;SDS011;28892;55.640;37.532;2023-04-06T06:30:29;11.27;;;5.00;;
43297;SDS011;28892;55.640;37.532;2023-04-06T06:33:03;7.25;;;5.10;;
43297;SDS011;28892;55.640;37.532;2023-04-06T06:35:29;4.90;;;3.40;;
43297;SDS011;28892;55.640;37.532;2023-04-06T06:37:59;6.88;;;4.82;;
43297;SDS011;28892;55.640;37.532;2023-04-06T06:40:26;17.85;;;5.03;;
43297;SDS011;28892;55.640;37.532;2023-04-06T06:42:53;12.40;;;5.13;;
43297;SDS011;28892;55.640;37.532;2023-04-06T06:45:27;8.90;;;3.95;;
43297;SDS011;28892;55.640;37.532;2023-04-06T06:47:54;10.23;;;5.72;;
43297;SDS011;28892;55.640;37.532;2023-04-06T06:50:20;12.30;;;3.70;;
43297;SDS011;28892;55.640;37.532;2023-04-06T06:52:46;7.97;;;5.13;;
43297;SDS011;28892;55.640;37.532;2023-04-06T06:55:17;12.43;;;5.93;;
43297;SDS011;28892;55.640;37.532;2023-04-06T06:57:44;14.88;;;6.03;;
43297;SDS011;28892;55.640;37.532;2023-04-06T07:00:17;12.73;;;6.43;;
43297;SDS011;28892;55.640;37.532;2023-04-06T07:02:45;12.98;;;9.30;;
43297;SDS011;28892;55.640;37.532;2023-04-06T07:05:13;11.77;;;5.50;;
43297;SDS011;28892;55.640;37.532;2023-04-06T07:07:41;8.05;;;6.30;;
43297;SDS011;28892;55.640;37.532;2023-04-06T07:10:07;9.50;;;4.95;;
43297;SDS011;28892;55.640;37.532;2023-04-06T07:12:38;12.48;;;6.15;;
43297;SDS011;28892;55.640;37.532;2023-04-06T07:15:07;14.50;;;6.53;;
43297;SDS011;28892;55.640;37.532;2023-04-06T07:17:36;11.35;;;5.60;;
43297;SDS011;28892;55.640;37.532;2023-04-06T07:20:02;12.48;;;5.15;;
43297;SDS011;28892;55.640;37.532;2023-04-06T07:22:38;10.30;;;4.72;;
43297;SDS011;28892;55.640;37.532;2023-04-06T07:25:22;14.07;;;6.78;;
43297;SDS011;28892;55.640;37.532;2023-04-06T07:27:50;10.15;;;5.57;;
43297;SDS011;28892;55.640;37.532;2023-04-06T07:30:29;7.38;;;4.10;;
43297;SDS011;28892;55.640;37.532;2023-04-06T07:32:58;9.00;;;4.53;;
43297;SDS011;28892;55.640;37.532;2023-04-06T07:35:26;9.30;;;4.85;;
43297;SDS011;28892;55.640;37.532;2023-04-06T07:37:53;8.00;;;4.30;;
43297;SDS011;28892;55.640;37.532;2023-04-06T07:40:21;12.75;;;4.50;;
43297;SDS011;28892;55.640;37.532;2023-04-06T07:42:49;15.55;;;4.57;;
43297;SDS011;28892;55.640;37.532;2023-04-06T07:45:15;10.57;;;3.88;;
43297;SDS011;28892;55.640;37.532;2023-04-06T07:47:45;8.98;;;3.97;;
43297;SDS011;28892;55.640;37.532;2023-04-06T07:52:46;7.75;;;3.10;;
43297;SDS011;28892;55.640;37.532;2023-04-06T07:55:43;8.95;;;3.45;;
43297;SDS011;28892;55.640;37.532;2023-04-06T07:58:17;8.65;;;4.32;;
43297;SDS011;28892;55.640;37.532;2023-04-06T08:03:46;12.82;;;4.50;;
43297;SDS011;28892;55.640;37.532;2023-04-06T08:06:12;9.43;;;3.25;;
43297;SDS011;28892;55.640;37.532;2023-04-06T08:08:43;10.23;;;3.97;;
43297;SDS011;28892;55.640;37.532;2023-04-06T08:11:09;10.18;;;3.83;;
43297;SDS011;28892;55.640;37.532;2023-04-06T08:13:35;9.10;;;3.85;;
43297;SDS011;28892;55.640;37.532;2023-04-06T08:16:17;10.32;;;3.55;;
43297;SDS011;28892;55.640;37.532;2023-04-06T08:18:43;13.05;;;4.15;;
43297;SDS011;28892;55.640;37.532;2023-04-06T08:21:11;7.07;;;3.30;;
43297;SDS011;28892;55.640;37.532;2023-04-06T08:23:37;6.45;;;3.78;;
43297;SDS011;28892;55.640;37.532;2023-04-06T08:26:16;10.95;;;3.58;;
43297;SDS011;28892;55.640;37.532;2023-04-06T08:28:46;11.93;;;3.70;;
43297;SDS011;28892;55.640;37.532;2023-04-06T08:31:12;7.95;;;3.63;;
43297;SDS011;28892;55.640;37.532;2023-04-06T08:33:41;7.10;;;3.15;;
43297;SDS011;28892;55.640;37.532;2023-04-06T08:36:14;9.60;;;3.63;;
43297;SDS011;28892;55.640;37.532;2023-04-06T08:38:40;5.93;;;3.03;;
43297;SDS011;28892;55.640;37.532;2023-04-06T08:41:11;8.50;;;3.05;;
43297;SDS011;28892;55.640;37.532;2023-04-06T08:43:50;11.98;;;3.50;;
43297;SDS011;28892;55.640;37.532;2023-04-06T08:46:22;6.93;;;3.20;;
43297;SDS011;28892;55.640;37.532;2023-04-06T08:48:54;7.63;;;3.30;;
43297;SDS011;28892;55.640;37.532;2023-04-06T08:51:22;9.80;;;3.60;;
43297;SDS011;28892;55.640;37.532;2023-04-06T08:53:50;9.23;;;3.10;;
43297;SDS011;28892;55.640;37.532;2023-04-06T08:56:16;12.70;;;3.38;;
43297;SDS011;28892;55.640;37.532;2023-04-06T08:58:42;9.10;;;3.50;;
43297;SDS011;28892;55.640;37.532;2023-04-06T09:01:11;6.10;;;3.10;;
43297;SDS011;28892;55.640;37.532;2023-04-06T09:03:40;9.50;;;3.00;;
43297;SDS011;28892;55.640;37.532;2023-04-06T09:06:07;6.18;;;2.83;;
43297;SDS011;28892;55.640;37.532;2023-04-06T09:08:42;7.43;;;3.45;;
43297;SDS011;28892;55.640;37.532;2023-04-06T09:11:12;10.13;;;3.35;;
43297;SDS011;28892;55.640;37.532;2023-04-06T09:16:38;12.90;;;3.72;;
43297;SDS011;28892;55.640;37.532;2023-04-06T09:19:05;12.82;;;3.60;;
43297;SDS011;28892;55.640;37.532;2023-04-06T09:21:32;15.18;;;3.20;;
43297;SDS011;28892;55.640;37.532;2023-04-06T09:24:02;10.45;;;3.92;;
43297;SDS011;28892;55.640;37.532;2023-04-06T09:26:28;10.35;;;3.50;;
43297;SDS011;28892;55.640;37.532;2023-04-06T09:28:58;10.18;;;3.17;;
43297;SDS011;28892;55.640;37.532;2023-04-06T09:31:30;11.25;;;3.42;;
43297;SDS011;28892;55.640;37.532;2023-04-06T09:33:58;8.57;;;3.88;;
43297;SDS011;28892;55.640;37.532;2023-04-06T09:36:35;9.48;;;3.13;;
43297;SDS011;28892;55.640;37.532;2023-04-06T09:39:06;7.35;;;3.22;;
43297;SDS011;28892;55.640;37.532;2023-04-06T09:41:36;9.98;;;3.55;;
43297;SDS011;28892;55.640;37.532;2023-04-06T09:44:08;9.48;;;3.42;;
43297;SDS011;28892;55.640;37.532;2023-04-06T09:49:05;13.80;;;4.28;;
43297;SDS011;28892;55.640;37.532;2023-04-06T09:51:36;8.68;;;3.95;;
43297;SDS011;28892;55.640;37.532;2023-04-06T09:54:06;7.28;;;3.20;;
43297;SDS011;28892;55.640;37.532;2023-04-06T09:56:42;8.27;;;3.63;;
43297;SDS011;28892;55.640;37.532;2023-04-06T09:59:25;5.43;;;3.08;;
43297;SDS011;28892;55.640;37.532;2023-04-06T10:01:59;10.30;;;3.20;;
43297;SDS011;28892;55.640;37.532;2023-04-06T10:07:00;6.35;;;2.70;;
43297;SDS011;28892;55.640;37.532;2023-04-06T10:09:28;11.70;;;3.50;;
43297;SDS011;28892;55.640;37.532;2023-04-06T10:12:02;4.63;;;3.05;;
43297;SDS011;28892;55.640;37.532;2023-04-06T10:14:34;10.68;;;3.60;;
43297;SDS011;28892;55.640;37.532;2023-04-06T10:17:03;9.52;;;2.90;;
43297;SDS011;28892;55.640;37.532;2023-04-06T10:22:34;5.05;;;2.30;;
43297;SDS011;28892;55.640;37.532;2023-04-06T10:25:07;8.70;;;2.80;;
43297;SDS011;28892;55.640;37.532;2023-04-06T10:27:34;5.05;;;2.30;;
43297;SDS011;28892;55.640;37.532;2023-04-06T10:30:03;7.03;;;2.88;;
43297;SDS011;28892;55.640;37.532;2023-04-06T10:32:34;6.40;;;2.88;;
43297;SDS011;28892;55.640;37.532;2023-04-06T10:35:05;6.55;;;2.80;;
43297;SDS011;28892;55.640;37.532;2023-04-06T10:37:45;7.32;;;2.60;;
43297;SDS011;28892;55.640;37.532;2023-04-06T10:40:22;9.77;;;3.28;;
43297;SDS011;28892;55.640;37.532;2023-04-06T10:42:50;8.48;;;3.03;;
43297;SDS011;28892;55.640;37.532;2023-04-06T10:45:22;8.52;;;3.40;;
43297;SDS011;28892;55.640;37.532;2023-04-06T10:47:49;7.65;;;2.97;;
43297;SDS011;28892;55.640;37.532;2023-04-06T10:50:19;6.35;;;2.95;;
43297;SDS011;28892;55.640;37.532;2023-04-06T10:52:45;6.18;;;2.95;;
43297;SDS011;28892;55.640;37.532;2023-04-06T10:55:15;7.43;;;2.72;;
43297;SDS011;28892;55.640;37.532;2023-04-06T10:57:42;4.07;;;2.65;;
43297;SDS011;28892;55.640;37.532;2023-04-06T11:00:08;5.65;;;3.13;;
43297;SDS011;28892;55.640;37.532;2023-04-06T11:02:35;10.88;;;3.47;;
43297;SDS011;28892;55.640;37.532;2023-04-06T11:05:02;7.10;;;3.67;;
43297;SDS011;28892;55.640;37.532;2023-04-06T11:07:29;7.10;;;3.35;;
43297;SDS011;28892;55.640;37.532;2023-04-06T11:09:55;10.00;;;3.15;;
43297;SDS011;28892;55.640;37.532;2023-04-06T11:12:22;9.50;;;3.33;;
43297;SDS011;28892;55.640;37.532;2023-04-06T11:14:54;8.95;;;4.47;;
43297;SDS011;28892;55.640;37.532;2023-04-06T11:17:31;8.80;;;3.38;;
43297;SDS011;28892;55.640;37.532;2023-04-06T11:20:01;5.53;;;2.85;;
43297;SDS011;28892;55.640;37.532;2023-04-06T11:22:28;6.72;;;3.60;;
43297;SDS011;28892;55.640;37.532;2023-04-06T11:25:07;9.48;;;3.17;;
43297;SDS011;28892;55.640;37.532;2023-04-06T11:27:34;8.73;;;3.15;;
43297;SDS011;28892;55.640;37.532;2023-04-06T11:30:03;8.48;;;3.60;;
43297;SDS011;28892;55.640;37.532;2023-04-06T11:32:29;10.57;;;4.32;;
43297;SDS011;28892;55.640;37.532;2023-04-06T11:35:06;6.45;;;3.15;;
43297;SDS011;28892;55.640;37.532;2023-04-06T11:37:35;10.82;;;4.60;;
43297;SDS011;28892;55.640;37.532;2023-04-06T11:40:07;10.68;;;3.30;;
43297;SDS011;28892;55.640;37.532;2023-04-06T11:42:34;8.93;;;3.17;;
43297;SDS011;28892;55.640;37.532;2023-04-06T11:45:00;11.93;;;3.00;;
43297;SDS011;28892;55.640;37.532;2023-04-06T11:47:29;5.43;;;2.70;;
43297;SDS011;28892;55.640;37.532;2023-04-06T11:52:58;8.10;;;2.70;;
43297;SDS011;28892;55.640;37.532;2023-04-06T11:55:28;9.73;;;3.75;;
43297;SDS011;28892;55.640;37.532;2023-04-06T11:57:57;11.82;;;3.05;;
43297;SDS011;28892;55.640;37.532;2023-04-06T12:00:32;7.43;;;3.15;;
43297;SDS011;28892;55.640;37.532;2023-04-06T12:03:02;6.57;;;2.58;;
43297;SDS011;28892;55.640;37.532;2023-04-06T12:05:32;4.47;;;2.90;;
43297;SDS011;28892;55.640;37.532;2023-04-06T12:07:58;8.25;;;3.33;;
43297;SDS011;28892;55.640;37.532;2023-04-06T12:10:24;6.43;;;2.42;;
43297;SDS011;28892;55.640;37.532;2023-04-06T12:12:50;9.20;;;2.70;;
43297;SDS011;28892;55.640;37.532;2023-04-06T12:15:16;9.70;;;4.47;;
43297;SDS011;28892;55.640;37.532;2023-04-06T12:17:42;9.88;;;3.05;;
43297;SDS011;28892;55.640;37.532;2023-04-06T12:20:08;6.38;;;3.47;;
43297;SDS011;28892;55.640;37.532;2023-04-06T12:22:35;6.32;;;3.05;;
43297;SDS011;28892;55.640;37.532;2023-04-06T12:25:01;8.98;;;2.72;;
43297;SDS011;28892;55.640;37.532;2023-04-06T12:27:28;7.45;;;3.55;;
43297;SDS011;28892;55.640;37.532;2023-04-06T12:30:20;9.88;;;3.50;;
43297;SDS011;28892;55.640;37.532;2023-04-06T12:33:29;7.88;;;2.83;;
43297;SDS011;28892;55.640;37.532;2023-04-06T12:35:55;6.22;;;3.08;;
43297;SDS011;28892;55.640;37.532;2023-04-06T12:38:21;5.97;;;2.58;;
43297;SDS011;28892;55.640;37.532;2023-04-06T12:40:50;9.25;;;3.00;;
43297;SDS011;28892;55.640;37.532;2023-04-06T12:43:18;4.82;;;2.92;;
43297;SDS011;28892;55.640;37.532;2023-04-06T12:45:47;9.07;;;3.00;;
43297;SDS011;28892;55.640;37.532;2023-04-06T12:48:26;7.55;;;2.47;;
43297;SDS011;28892;55.640;37.532;2023-04-06T12:51:08;7.72;;;2.05;;
43297;SDS011;28892;55.640;37.532;2023-04-06T12:53:51;7.20;;;2.10;;
43297;SDS011;28892;55.640;37.532;2023-04-06T12:56:17;5.65;;;2.38;;
43297;SDS011;28892;55.640;37.532;2023-04-06T12:58:51;7.03;;;2.72;;
43297;SDS011;28892;55.640;37.532;2023-04-06T13:01:23;5.72;;;3.33;;
43297;SDS011;28892;55.640;37.532;2023-04-06T13:03:56;8.05;;;2.83;;
43297;SDS011;28892;55.640;37.532;2023-04-06T13:17:27;6.47;;;3.10;;
43297;SDS011;28892;55.640;37.532;2023-04-06T13:20:11;8.63;;;3.08;;
43297;SDS011;28892;55.640;37.532;2023-04-06T13:22:43;6.63;;;2.85;;
43297;SDS011;28892;55.640;37.532;2023-04-06T13:25:08;5.55;;;2.75;;
43297;SDS011;28892;55.640;37.532;2023-04-06T13:27:34;13.23;;;2.47;;
43297;SDS011;28892;55.640;37.532;2023-04-06T13:30:01;5.53;;;2.53;;
43297;SDS011;28892;55.640;37.532;2023-04-06T13:32:29;11.38;;;3.10;;
43297;SDS011;28892;55.640;37.532;2023-04-06T13:35:02;5.97;;;2.72;;
43297;SDS011;28892;55.640;37.532;2023-04-06T13:37:29;6.43;;;3.15;;
43297;SDS011;28892;55.640;37.532;2023-04-06T13:39:54;6.63;;;2.72;;
43297;SDS011;28892;55.640;37.532;2023-04-06T13:42:23;10.23;;;2.80;;
43297;SDS011;28892;55.640;37.532;2023-04-06T13:44:49;8.65;;;2.65;;
43297;SDS011;28892;55.640;37.532;2023-04-06T13:47:16;5.47;;;3.10;;
43297;SDS011;28892;55.640;37.532;2023-04-06T13:49:42;3.38;;;2.45;;
43297;SDS011;28892;55.640;37.532;2023-04-06T13:52:09;10.10;;;2.60;;
43297;SDS011;28892;55.640;37.532;2023-04-06T13:54:38;5.57;;;2.38;;
43297;SDS011;28892;55.640;37.532;2023-04-06T13:57:04;4.22;;;2.30;;
43297;SDS011;28892;55.640;37.532;2023-04-06T13:59:41;4.30;;;2.13;;
43297;SDS011;28892;55.640;37.532;2023-04-06T14:02:08;6.35;;;2.50;;
43297;SDS011;28892;55.640;37.532;2023-04-06T14:04:40;3.47;;;2.40;;
43297;SDS011;28892;55.640;37.532;2023-04-06T14:07:06;4.53;;;2.40;;
43297;SDS011;28892;55.640;37.532;2023-04-06T14:09:33;5.72;;;2.53;;
43297;SDS011;28892;55.640;37.532;2023-04-06T14:11:59;6.63;;;2.88;;
43297;SDS011;28892;55.640;37.532;2023-04-06T14:14:27;9.75;;;2.83;;
43297;SDS011;28892;55.640;37.532;2023-04-06T14:16:58;7.65;;;3.42;;
43297;SDS011;28892;55.640;37.532;2023-04-06T14:19:29;5.95;;;2.75;;
43297;SDS011;28892;55.640;37.532;2023-04-06T14:21:57;5.57;;;3.30;;
43297;SDS011;28892;55.640;37.532;2023-04-06T14:24:24;6.15;;;2.53;;
43297;SDS011;28892;55.640;37.532;2023-04-06T14:26:50;4.70;;;2.30;;
43297;SDS011;28892;55.640;37.532;2023-04-06T14:29:16;5.47;;;2.60;;
43297;SDS011;28892;55.640;37.532;2023-04-06T14:31:46;6.60;;;2.95;;
43297;SDS011;28892;55.640;37.532;2023-04-06T14:34:12;3.30;;;2.10;;
43297;SDS011;28892;55.640;37.532;2023-04-06T14:36:38;8.25;;;2.53;;
43297;SDS011;28892;55.640;37.532;2023-04-06T14:39:06;3.88;;;2.28;;
43297;SDS011;28892;55.640;37.532;2023-04-06T14:41:35;5.47;;;2.58;;
43297;SDS011;28892;55.640;37.532;2023-04-06T14:44:01;6.57;;;2.72;;
43297;SDS011;28892;55.640;37.532;2023-04-06T14:46:28;8.35;;;2.53;;
43297;SDS011;28892;55.640;37.532;2023-04-06T14:48:54;4.57;;;1.70;;
43297;SDS011;28892;55.640;37.532;2023-04-06T14:51:26;9.20;;;2.08;;
43297;SDS011;28892;55.640;37.532;2023-04-06T14:53:53;5.28;;;2.33;;
43297;SDS011;28892;55.640;37.532;2023-04-06T14:56:21;7.03;;;2.25;;
43297;SDS011;28892;55.640;37.532;2023-04-06T14:58:49;5.55;;;2.80;;
43297;SDS011;28892;55.640;37.532;2023-04-06T15:01:16;3.65;;;1.98;;
43297;SDS011;28892;55.640;37.532;2023-04-06T15:03:43;3.75;;;2.15;;
43297;SDS011;28892;55.640;37.532;2023-04-06T15:06:13;8.45;;;2.35;;
43297;SDS011;28892;55.640;37.532;2023-04-06T15:08:43;5.80;;;1.98;;
43297;SDS011;28892;55.640;37.532;2023-04-06T15:11:09;5.03;;;1.92;;
43297;SDS011;28892;55.640;37.532;2023-04-06T15:13:36;6.88;;;1.95;;
43297;SDS011;28892;55.640;37.532;2023-04-06T15:16:06;5.35;;;2.13;;